Tropical Cyclones
[Index]
Main Index Home Page Stock Weather Photos Extreme Storms Discussion Storm News and Storm Chasing Reports Tropical Cyclones / Hurricanes / Typhoons Weather Data and Links Wild Fires / Bushfires Weather Observation Techniques Weather Picture Catalogue Tornado Pictures and Reports Stock Video Footage and DVDs for sale
Season 1963-1964 Tropical Cyclone 196401 Track Map
Season 1963-1964 Summaries: [BoM-AU] [JTWC-AU] [JTWC-SIO] [JTWC-SPAC] [JTWC-SH]
<<- Previous TC | JTWC 1963-1964 Season | Next TC ->>

click for intensity scale information  Lat/long Grid: Show Hide

 Date Labels: Show Hide

Joint Typhoon Warning Centre Cyclone Data

Name: 196401
Number: 503 / 6401

14 Nov 1963 00:00 UTC to 23 Nov 1963 00:00 UTC

    date/time    lat    long     hPa   cat  kts
1963-11-14 00   10.0   170.0                              
1963-11-14 06   10.0   170.9                              
1963-11-14 12   10.3   171.6                              
1963-11-14 18   10.9   172.1                              
1963-11-15 00   11.5   172.0                              
1963-11-15 06   11.6   171.5                              
1963-11-15 12   11.8   171.0                              
1963-11-15 18   12.1   170.5                              
1963-11-16 00   12.5   170.0                              
1963-11-16 06   12.9   170.1                              
1963-11-16 12   13.3   170.4                              
1963-11-16 18   13.6   170.4                              
1963-11-17 00   14.0   170.3                              
1963-11-17 06   14.7   170.2                              
1963-11-17 12   15.4   170.0                              
1963-11-17 18   15.9   169.4                              
1963-11-18 00   16.3   169.0                              
1963-11-18 06   16.7   169.1                              
1963-11-18 12   17.1   169.3                              
1963-11-18 18   17.5   169.4                              
1963-11-19 00   17.8   169.7                              
1963-11-19 06   18.0   170.1                              
1963-11-19 12   18.1   170.6                              
1963-11-19 18   18.3   171.0                              
1963-11-20 00   18.6   171.5                              
1963-11-20 06   18.9   172.5                              
1963-11-20 12   19.3   173.8                              
1963-11-20 18   19.9   174.9                              
1963-11-21 00   20.5   176.0                              
1963-11-21 06   20.9   176.9                              
1963-11-21 12   21.3   177.5                              
1963-11-21 18   21.9   177.9                              
1963-11-22 00   22.5   178.2                              
1963-11-22 06   23.0   178.4                              
1963-11-22 12   23.4   178.7                              
1963-11-22 18   23.6   179.2                              
1963-11-23 00   23.7   179.8                              
Winds are 1-min average.

Tropical cyclone tracks developed by Michael Bath using data from the Joint Typhoon Warning Centre Best Tracks and Google Maps.


[Australian Severe Weather index] [Copyright Notice] [Email Contacts] [Search This Site] [Privacy Policy]
Document: tropical_cyclone_196401.htm Updated: 18 September 2016